createdAt,value
2018-08-24T00:00:17.381Z,64.00
2018-08-24T00:02:48.526Z,64.33
2018-08-24T00:05:19.483Z,64.19
2018-08-24T00:07:50.489Z,64.04
2018-08-24T00:10:21.530Z,65.32
2018-08-24T00:12:53.233Z,64.20
2018-08-24T00:15:24.372Z,65.84
2018-08-24T00:17:55.577Z,64.98
2018-08-24T00:20:26.485Z,65.65
2018-08-24T00:22:57.504Z,65.40
2018-08-24T00:25:29.289Z,66.02
2018-08-24T00:28:00.397Z,66.10
2018-08-24T00:30:31.457Z,66.55
2018-08-24T00:33:02.461Z,66.57
2018-08-24T00:35:33.487Z,66.79
2018-08-24T00:38:05.563Z,66.32
2018-08-24T00:40:36.580Z,66.17
2018-08-24T00:43:07.559Z,66.17
2018-08-24T00:45:38.494Z,67.56
2018-08-24T00:48:09.586Z,66.27
2018-08-24T00:50:40.477Z,66.26
2018-08-24T00:53:12.298Z,67.10
2018-08-24T00:55:43.515Z,67.30
2018-08-24T00:58:14.500Z,67.41
2018-08-24T01:00:45.679Z,66.33
2018-08-24T01:03:16.576Z,66.82
2018-08-24T01:05:47.460Z,66.83
2018-08-24T01:08:18.503Z,67.25
2018-08-24T01:10:49.537Z,66.53
2018-08-24T01:13:20.513Z,66.07
2018-08-24T01:18:29.248Z,66.12
2018-08-24T01:21:00.452Z,67.00
2018-08-24T01:23:32.781Z,67.28
2018-08-24T01:26:03.598Z,67.51
2018-08-24T01:28:34.523Z,67.17
2018-08-24T01:31:07.388Z,66.78
2018-08-24T01:33:38.761Z,67.47
2018-08-24T01:36:09.546Z,67.00
2018-08-24T01:38:40.511Z,66.79
2018-08-24T01:41:11.475Z,66.74
2018-08-24T01:43:42.484Z,66.34
2018-08-24T01:46:15.318Z,66.72
2018-08-24T01:48:46.380Z,66.56
2018-08-24T01:51:17.513Z,66.58
2018-08-24T01:53:48.673Z,65.80
2018-08-24T01:56:19.532Z,65.46
2018-08-24T01:58:50.599Z,65.34
2018-08-24T02:01:21.498Z,65.11
2018-08-24T02:03:52.535Z,63.99
2018-08-24T02:06:23.530Z,64.85
2018-08-24T02:08:54.514Z,64.04
2018-08-24T02:11:30.595Z,63.01
2018-08-24T02:14:06.797Z,63.32
2018-08-24T02:16:38.441Z,63.37
2018-08-24T02:19:17.645Z,62.34
2018-08-24T02:21:53.533Z,63.69
2018-08-24T02:24:24.539Z,65.68
2018-08-24T02:26:55.609Z,66.69
2018-08-24T02:29:26.499Z,67.79
2018-08-24T02:31:57.483Z,67.89
2018-08-24T02:37:14.505Z,68.26
2018-08-24T02:39:45.523Z,69.62
2018-08-24T02:42:16.497Z,69.00
2018-08-24T02:44:47.538Z,68.97
2018-08-24T02:47:18.494Z,69.19
2018-08-24T02:49:49.521Z,68.91
2018-08-24T02:52:20.487Z,67.82
2018-08-24T02:54:51.535Z,68.90
2018-08-24T02:57:22.515Z,68.84
2018-08-24T02:59:53.494Z,69.11
2018-08-24T03:02:24.514Z,69.45
2018-08-24T03:04:55.501Z,68.92
2018-08-24T03:07:26.783Z,69.66
2018-08-24T03:09:57.657Z,70.27
2018-08-24T03:12:28.566Z,69.61
2018-08-24T03:14:59.538Z,69.67
2018-08-24T03:17:35.684Z,70.46
2018-08-24T03:20:06.573Z,70.73
2018-08-24T03:22:37.510Z,70.86
2018-08-24T03:25:08.566Z,71.54
2018-08-24T03:27:39.534Z,71.28
2018-08-24T03:30:10.493Z,71.75
2018-08-24T03:32:41.493Z,72.88
2018-08-24T03:35:12.534Z,72.02
2018-08-24T03:37:43.477Z,71.86
2018-08-24T03:40:14.529Z,73.25
2018-08-24T03:42:45.481Z,73.45
2018-08-24T03:45:16.565Z,73.17
2018-08-24T03:47:47.506Z,73.70
2018-08-24T03:50:18.501Z,74.95
2018-08-24T03:52:49.511Z,75.04
2018-08-24T03:55:20.509Z,75.53
2018-08-24T03:57:51.550Z,75.55
2018-08-24T04:00:22.506Z,75.33
2018-08-24T04:02:53.554Z,74.69
2018-08-24T04:05:24.525Z,75.75
2018-08-24T04:07:55.493Z,76.54
2018-08-24T04:10:27.323Z,76.52
2018-08-24T04:12:58.651Z,76.10
2018-08-24T04:15:29.506Z,76.95
2018-08-24T04:18:00.506Z,75.93
2018-08-24T04:20:31.521Z,76.03
2018-08-24T04:23:02.523Z,76.67
2018-08-24T04:25:33.537Z,75.67
2018-08-24T04:28:04.503Z,74.77
2018-08-24T04:30:35.493Z,76.22
2018-08-24T04:33:06.559Z,75.74
2018-08-24T04:35:37.614Z,76.31
2018-08-24T04:38:08.560Z,75.75
2018-08-24T04:40:39.494Z,75.29
2018-08-24T04:43:10.519Z,76.05
2018-08-24T04:45:41.570Z,74.93
2018-08-24T04:48:12.565Z,76.07
2018-08-24T04:50:43.505Z,75.49
2018-08-24T04:53:14.540Z,75.44
2018-08-24T04:55:45.508Z,75.19
2018-08-24T04:58:16.541Z,75.13
2018-08-24T05:02:49.490Z,74.54
2018-08-24T05:05:20.528Z,74.99
2018-08-24T05:07:51.492Z,75.53
2018-08-24T05:10:22.555Z,75.27
2018-08-24T05:12:53.503Z,75.89
2018-08-24T05:15:24.490Z,75.14
2018-08-24T05:17:55.609Z,75.01
2018-08-24T05:20:26.694Z,76.11
2018-08-24T05:22:57.552Z,75.70
2018-08-24T05:25:28.495Z,74.70
2018-08-24T05:27:59.609Z,75.13
2018-08-24T05:30:30.520Z,74.91
2018-08-24T05:33:01.545Z,74.45
2018-08-24T05:35:32.544Z,74.05
2018-08-24T05:38:03.537Z,74.77
2018-08-24T05:40:34.482Z,73.97
2018-08-24T05:43:05.519Z,73.81
2018-08-24T05:45:36.495Z,74.27
2018-08-24T05:48:07.537Z,74.07
2018-08-24T05:50:38.444Z,73.30
2018-08-24T05:53:10.472Z,72.72
2018-08-24T05:55:41.690Z,72.53
2018-08-24T05:58:12.567Z,72.34
2018-08-24T06:00:46.375Z,71.13
2018-08-24T06:03:17.575Z,70.97
2018-08-24T06:05:53.708Z,70.07
2018-08-24T06:08:24.557Z,70.65
2018-08-24T06:10:55.473Z,69.44
2018-08-24T06:13:26.513Z,68.43
2018-08-24T06:15:57.493Z,68.53
2018-08-24T06:18:28.518Z,67.28
2018-08-24T06:20:59.501Z,66.87
2018-08-24T06:23:30.512Z,65.69
2018-08-24T06:26:01.496Z,64.33
2018-08-24T06:28:32.536Z,63.74
2018-08-24T06:31:03.497Z,62.48
2018-08-24T06:33:34.489Z,61.65
2018-08-24T06:36:05.577Z,61.30
2018-08-24T06:38:36.552Z,61.76
2018-08-24T06:41:07.903Z,61.57
2018-08-24T06:43:38.841Z,58.81
2018-08-24T06:46:09.805Z,57.01
2018-08-24T06:48:40.610Z,57.11
2018-08-24T06:51:11.485Z,55.77
2018-08-24T06:53:42.578Z,56.05
2018-08-24T06:56:13.576Z,54.78
2018-08-24T06:58:45.287Z,54.92
2018-08-24T07:01:15.428Z,54.75
2018-08-24T07:03:46.486Z,54.81
2018-08-24T07:06:17.501Z,53.38
2018-08-24T07:08:48.498Z,54.02
2018-08-24T07:11:19.500Z,53.83
2018-08-24T07:13:51.407Z,51.70
2018-08-24T07:16:22.467Z,50.95
2018-08-24T07:18:53.521Z,50.51
2018-08-24T07:21:24.589Z,50.68
2018-08-24T07:23:55.607Z,49.70
2018-08-24T07:26:26.525Z,48.61
2018-08-24T07:28:57.475Z,49.19
2018-08-24T07:31:28.437Z,49.88
2018-08-24T07:33:59.588Z,49.64
2018-08-24T07:36:30.625Z,49.92
2018-08-24T07:39:01.506Z,52.04
2018-08-24T07:41:32.568Z,51.24
2018-08-24T07:44:03.505Z,51.43
2018-08-24T07:46:35.290Z,50.26
2018-08-24T07:49:07.223Z,50.46
2018-08-24T07:51:38.863Z,50.75
2018-08-24T07:54:09.674Z,51.43
2018-08-24T07:56:40.537Z,50.98
2018-08-24T07:59:11.529Z,51.17
2018-08-24T08:01:42.550Z,50.77
2018-08-24T08:04:13.569Z,50.64
2018-08-24T08:06:44.505Z,51.64
2018-08-24T08:09:15.601Z,52.31
2018-08-24T08:11:46.510Z,51.73
2018-08-24T08:14:17.510Z,51.96
2018-08-24T08:16:53.185Z,51.76
2018-08-24T08:19:24.345Z,50.96
2018-08-24T08:21:55.486Z,52.20
2018-08-24T08:24:26.514Z,51.80
2018-08-24T08:26:57.507Z,52.27
2018-08-24T08:29:33.768Z,51.76
2018-08-24T08:32:04.574Z,52.23
2018-08-24T08:34:39.365Z,51.83
2018-08-24T08:37:10.445Z,52.01
2018-08-24T08:39:41.452Z,51.48
2018-08-24T08:42:12.486Z,51.00
2018-08-24T08:44:43.489Z,50.81
2018-08-24T08:47:14.641Z,51.26
2018-08-24T08:49:45.627Z,51.75
2018-08-24T08:52:16.463Z,50.74
2018-08-24T08:54:47.432Z,49.86
2018-08-24T08:57:18.444Z,50.37
2018-08-24T08:59:49.746Z,49.10
2018-08-24T09:02:20.581Z,49.48
2018-08-24T09:04:51.484Z,48.43
2018-08-24T09:07:22.489Z,48.37
2018-08-24T09:09:53.515Z,48.39
2018-08-24T09:12:24.529Z,48.06
2018-08-24T09:14:55.465Z,48.42
2018-08-24T09:17:31.689Z,50.01
2018-08-24T09:20:07.665Z,53.01
2018-08-24T09:23:45.318Z,56.15
2018-08-24T09:26:22.924Z,56.48
2018-08-24T09:28:54.829Z,57.62
2018-08-24T09:31:32.288Z,57.67
2018-08-24T09:34:03.387Z,57.29
2018-08-24T09:36:34.477Z,57.37
2018-08-24T09:39:08.381Z,59.49
2018-08-24T09:41:39.494Z,59.52
2018-08-24T09:44:10.486Z,61.09
2018-08-24T09:46:46.536Z,61.33
2018-08-24T09:49:22.642Z,62.08
2018-08-24T09:51:53.578Z,64.08
2018-08-24T09:54:24.548Z,64.28
2018-08-24T09:56:55.584Z,67.33
2018-08-24T09:59:26.556Z,69.06
2018-08-24T10:02:03.002Z,69.15
2018-08-24T10:05:42.028Z,68.80
2018-08-24T10:08:18.368Z,69.29
2018-08-24T10:10:49.491Z,71.42
2018-08-24T10:13:20.615Z,69.49
2018-08-24T10:15:51.521Z,68.67
2018-08-24T10:18:22.482Z,68.59
2018-08-24T10:20:53.503Z,68.38
2018-08-24T10:23:24.515Z,67.71
2018-08-24T10:25:55.494Z,68.50
2018-08-24T10:28:26.513Z,65.45
2018-08-24T10:30:57.527Z,66.95
2018-08-24T10:33:28.506Z,66.71
2018-08-24T10:35:59.497Z,68.23
2018-08-24T10:38:30.511Z,64.26
2018-08-24T10:41:01.567Z,64.65
2018-08-24T10:43:32.496Z,65.47
2018-08-24T10:46:03.542Z,63.41
2018-08-24T10:48:34.539Z,63.50
2018-08-24T10:51:05.562Z,61.27
2018-08-24T10:53:41.440Z,60.67
2018-08-24T10:56:12.550Z,64.85
2018-08-24T10:58:43.490Z,63.64
2018-08-24T11:01:14.487Z,65.03
2018-08-24T11:03:45.520Z,66.56
2018-08-24T11:06:16.468Z,67.83
2018-08-24T11:08:48.293Z,67.45
2018-08-24T11:11:18.410Z,67.72
2018-08-24T11:13:49.477Z,69.22
2018-08-24T11:16:20.490Z,70.79
2018-08-24T11:18:51.501Z,69.32
2018-08-24T11:21:22.502Z,67.89
2018-08-24T11:23:53.525Z,66.23
2018-08-24T11:26:24.482Z,63.09
2018-08-24T11:28:55.594Z,62.68
2018-08-24T11:31:26.538Z,59.70
2018-08-24T11:33:57.543Z,58.11
2018-08-24T11:36:28.534Z,59.44
2018-08-24T11:38:59.583Z,56.66
2018-08-24T11:52:25.467Z,53.34
2018-08-24T11:54:56.496Z,52.98
2018-08-24T11:57:27.510Z,52.21
2018-08-24T11:59:58.525Z,49.70
2018-08-24T12:02:29.591Z,48.06
2018-08-24T12:05:00.526Z,49.04
2018-08-24T12:07:31.844Z,46.94
2018-08-24T12:10:03.214Z,48.48
2018-08-24T12:12:34.817Z,46.23
2018-08-24T12:15:05.667Z,48.01
2018-08-24T12:17:38.030Z,48.59
2018-08-24T12:20:09.833Z,49.67
2018-08-24T12:22:40.620Z,47.74
2018-08-24T12:25:11.490Z,46.74
2018-08-24T12:27:42.510Z,44.54
2018-08-24T12:30:13.505Z,44.38
2018-08-24T12:32:44.583Z,45.34
2018-08-24T12:35:15.552Z,46.13
2018-08-24T12:37:47.443Z,45.53
2018-08-24T12:40:18.845Z,47.06
2018-08-24T12:42:49.728Z,48.60
2018-08-24T12:45:20.611Z,47.25
2018-08-24T12:47:51.525Z,49.93
2018-08-24T12:50:22.511Z,46.55
2018-08-24T12:52:53.540Z,47.00
2018-08-24T12:55:24.531Z,49.06
2018-08-24T12:57:55.557Z,49.24
2018-08-24T13:00:26.546Z,50.19
2018-08-24T13:02:57.535Z,51.29
2018-08-24T13:05:28.529Z,48.11
2018-08-24T13:07:59.493Z,50.39
2018-08-24T13:10:30.626Z,47.49
2018-08-24T13:13:01.602Z,45.88
2018-08-24T13:15:32.498Z,45.56
2018-08-24T13:18:03.533Z,44.51
2018-08-24T13:20:34.571Z,45.40
2018-08-24T13:23:05.536Z,46.44
2018-08-24T13:25:36.561Z,46.73
2018-08-24T13:28:07.502Z,47.84
2018-08-24T13:30:38.538Z,45.54
2018-08-24T13:33:09.816Z,45.03
2018-08-24T13:35:41.033Z,45.81
2018-08-24T13:38:12.394Z,45.41
2018-08-24T13:40:43.484Z,45.75
2018-08-24T13:43:14.514Z,47.52
2018-08-24T13:45:45.551Z,47.42
2018-08-24T13:48:16.592Z,47.23
2018-08-24T13:50:47.577Z,47.98
2018-08-24T13:53:18.627Z,44.54
2018-08-24T13:55:49.671Z,44.76
2018-08-24T13:58:20.747Z,42.13
2018-08-24T14:03:35.607Z,40.29
2018-08-24T14:06:06.542Z,41.48
2018-08-24T14:08:37.585Z,41.11
2018-08-24T14:11:08.705Z,42.67
2018-08-24T14:13:39.639Z,40.41
2018-08-24T14:16:10.574Z,41.17
2018-08-24T14:18:41.556Z,41.59
2018-08-24T14:21:12.614Z,39.32
2018-08-24T14:23:43.568Z,39.35
2018-08-24T14:26:14.558Z,39.84
2018-08-24T14:28:45.494Z,40.29
2018-08-24T14:31:16.557Z,40.49
2018-08-24T14:33:47.560Z,39.84
2018-08-24T14:36:18.512Z,39.42
2018-08-24T14:38:49.554Z,41.18
2018-08-24T14:41:20.526Z,39.80
2018-08-24T14:43:51.535Z,40.21
2018-08-24T14:46:22.665Z,38.55
2018-08-24T14:48:54.430Z,39.17
2018-08-24T14:51:25.550Z,38.67
2018-08-24T14:53:57.037Z,38.12
2018-08-24T14:56:28.454Z,39.06
2018-08-24T14:58:59.654Z,38.95
2018-08-24T15:01:30.589Z,38.16
2018-08-24T15:04:01.610Z,36.04
2018-08-24T15:06:32.698Z,36.64
2018-08-24T15:09:03.626Z,36.79
2018-08-24T15:11:34.517Z,36.52
2018-08-24T15:14:05.548Z,35.87
2018-08-24T15:16:36.588Z,35.31
2018-08-24T15:19:08.187Z,34.80
2018-08-24T15:21:39.375Z,35.43
2018-08-24T15:24:10.442Z,35.43
2018-08-24T15:26:41.517Z,34.55
2018-08-24T15:29:12.554Z,34.74
2018-08-24T15:31:43.499Z,34.97
2018-08-24T15:34:14.534Z,35.15
2018-08-24T15:36:45.635Z,35.47
2018-08-24T15:39:16.525Z,33.51
2018-08-24T15:41:47.518Z,33.68
2018-08-24T15:44:18.527Z,33.88
2018-08-24T15:46:50.453Z,34.56
2018-08-24T15:49:21.545Z,34.69
2018-08-24T15:51:52.513Z,36.38
2018-08-24T15:54:23.523Z,37.99
2018-08-24T15:56:54.659Z,38.85
2018-08-24T15:59:25.615Z,38.20
2018-08-24T16:01:56.534Z,38.39
2018-08-24T16:04:27.580Z,39.69
2018-08-24T16:06:58.535Z,39.69
2018-08-24T16:09:29.509Z,38.84
2018-08-24T16:12:00.490Z,40.00
2018-08-24T16:14:31.489Z,38.62
2018-08-24T16:17:02.517Z,39.82
2018-08-24T16:19:33.438Z,38.85
2018-08-24T16:22:04.535Z,39.34
2018-08-24T16:24:35.805Z,39.82
2018-08-24T16:27:08.591Z,40.12
2018-08-24T16:29:39.591Z,39.72
2018-08-24T16:32:10.518Z,39.06
2018-08-24T16:34:41.539Z,39.75
2018-08-24T16:37:12.550Z,40.18
2018-08-24T16:39:43.497Z,39.31
2018-08-24T16:42:14.523Z,39.47
2018-08-24T16:44:45.862Z,39.28
2018-08-24T16:47:17.025Z,38.24
2018-08-24T16:49:48.536Z,37.86
2018-08-24T16:52:19.484Z,37.96
2018-08-24T16:54:50.503Z,38.35
2018-08-24T16:57:21.472Z,37.04
2018-08-24T16:59:52.497Z,37.08
2018-08-24T17:02:23.579Z,36.93
2018-08-24T17:04:54.562Z,37.91
2018-08-24T17:07:25.509Z,37.62
2018-08-24T17:09:56.523Z,37.87
2018-08-24T17:12:28.278Z,37.46
2018-08-24T17:14:58.401Z,38.13
2018-08-24T17:17:29.479Z,38.66
2018-08-24T17:20:01.248Z,38.08
2018-08-24T17:22:31.395Z,38.73
2018-08-24T17:25:02.496Z,38.69
2018-08-24T17:27:33.532Z,38.14
2018-08-24T17:30:04.541Z,38.02
2018-08-24T17:32:35.573Z,39.25
2018-08-24T17:35:07.328Z,39.73
2018-08-24T17:37:38.513Z,40.11
2018-08-24T17:40:09.504Z,39.30
2018-08-24T17:42:40.819Z,39.85
2018-08-24T17:45:11.812Z,39.52
2018-08-24T17:47:43.022Z,39.89
2018-08-24T17:50:14.445Z,40.22
2018-08-24T17:52:45.582Z,40.38
2018-08-24T17:55:16.477Z,40.52
2018-08-24T17:57:47.542Z,39.72
2018-08-24T18:00:18.639Z,39.72
2018-08-24T18:02:50.424Z,40.44
2018-08-24T18:05:21.641Z,40.43
2018-08-24T18:07:52.572Z,40.24
2018-08-24T18:10:23.511Z,40.23
2018-08-24T18:12:54.501Z,40.13
2018-08-24T18:15:25.458Z,39.89
2018-08-24T18:17:56.504Z,40.40
2018-08-24T18:20:27.584Z,39.79
2018-08-24T18:22:58.501Z,39.25
2018-08-24T18:25:29.513Z,39.01
2018-08-24T18:28:00.509Z,39.73
2018-08-24T18:30:31.640Z,40.34
2018-08-24T18:33:02.651Z,39.09
2018-08-24T18:35:33.596Z,39.51
2018-08-24T18:38:04.846Z,39.77
2018-08-24T18:40:36.018Z,39.93
2018-08-24T18:43:07.391Z,39.30
2018-08-24T18:45:38.562Z,38.96
2018-08-24T18:48:09.481Z,38.76
2018-08-24T18:50:40.618Z,38.90
2018-08-24T18:53:11.569Z,38.46
2018-08-24T18:55:42.599Z,38.53
2018-08-24T18:58:13.617Z,39.08
2018-08-24T19:00:44.592Z,39.08
2018-08-24T19:03:15.619Z,38.93
2018-08-24T19:05:46.639Z,38.33
2018-08-24T19:08:17.542Z,38.36
2018-08-24T19:10:53.719Z,38.30
2018-08-24T19:13:24.856Z,38.99
2018-08-24T19:15:56.026Z,38.92
2018-08-24T19:18:32.394Z,38.45
2018-08-24T19:21:09.021Z,38.02
2018-08-24T19:23:40.399Z,38.21
2018-08-24T19:26:11.528Z,38.37
2018-08-24T19:28:47.601Z,37.84
2018-08-24T19:31:18.590Z,38.63
2018-08-24T19:33:49.630Z,38.34
2018-08-24T19:36:20.603Z,37.89
2018-08-24T19:38:51.474Z,38.39
2018-08-24T19:41:27.673Z,37.94
2018-08-24T19:43:58.660Z,38.68
2018-08-24T19:46:29.619Z,39.33
2018-08-24T19:49:05.531Z,38.97
2018-08-24T19:51:36.502Z,38.75
2018-08-24T19:54:07.494Z,38.69
2018-08-24T19:56:38.572Z,38.40
2018-08-24T19:59:11.181Z,39.20
2018-08-24T20:01:42.471Z,39.10
2018-08-24T20:04:13.554Z,38.95
2018-08-24T20:06:49.722Z,38.37
2018-08-24T20:09:25.645Z,37.86
2018-08-24T20:11:56.554Z,37.87
2018-08-24T20:14:32.679Z,37.29
2018-08-24T20:17:08.706Z,37.58
2018-08-24T20:19:39.548Z,37.60
2018-08-24T20:22:11.285Z,39.04
2018-08-24T20:24:42.497Z,37.42
2018-08-24T20:27:13.629Z,37.81
2018-08-24T20:29:44.663Z,37.62
2018-08-24T20:32:15.590Z,37.31
2018-08-24T20:34:46.617Z,39.09
2018-08-24T20:37:17.545Z,37.24
2018-08-24T20:39:48.502Z,38.02
2018-08-24T20:42:19.748Z,37.71
2018-08-24T20:44:50.693Z,37.99
2018-08-24T20:47:22.189Z,37.89
2018-08-24T20:49:55.237Z,38.12
2018-08-24T20:52:26.449Z,38.45
2018-08-24T20:54:57.536Z,38.61
2018-08-24T20:57:28.519Z,38.85
2018-08-24T20:59:59.558Z,37.91
2018-08-24T21:02:30.505Z,37.18
2018-08-24T21:05:01.484Z,38.12
2018-08-24T21:07:32.510Z,38.08
2018-08-24T21:10:03.490Z,38.10
2018-08-24T21:12:35.230Z,38.03
2018-08-24T21:15:06.439Z,37.64
2018-08-24T21:17:37.422Z,37.68
2018-08-24T21:20:08.474Z,37.87
2018-08-24T21:22:39.474Z,37.29
2018-08-24T21:25:11.292Z,38.70
2018-08-24T21:27:43.016Z,37.82
2018-08-24T21:30:14.353Z,37.51
2018-08-24T21:32:45.387Z,37.84
2018-08-24T21:35:16.493Z,37.89
2018-08-24T21:37:47.520Z,37.85
2018-08-24T21:43:02.946Z,37.79
2018-08-24T21:45:34.220Z,37.41
2018-08-24T21:48:05.485Z,37.91
2018-08-24T21:50:36.495Z,37.90
2018-08-24T21:53:07.553Z,38.61
2018-08-24T21:55:38.487Z,38.31
2018-08-24T21:58:09.659Z,38.38
2018-08-24T22:00:41.835Z,38.25
2018-08-24T22:03:14.018Z,38.67
2018-08-24T22:05:45.273Z,38.80
2018-08-24T22:08:16.348Z,38.17
2018-08-24T22:10:47.377Z,38.65
2018-08-24T22:13:18.551Z,38.69
2018-08-24T22:15:49.497Z,38.47
2018-08-24T22:18:20.573Z,38.43
2018-08-24T22:20:51.534Z,39.12
2018-08-24T22:23:22.578Z,39.18
2018-08-24T22:25:53.468Z,39.85
2018-08-24T22:28:24.519Z,38.79
2018-08-24T22:30:55.465Z,39.20
2018-08-24T22:33:26.499Z,39.24
2018-08-24T22:35:57.481Z,40.23
2018-08-24T22:38:29.274Z,39.83
2018-08-24T22:40:59.377Z,39.09
2018-08-24T22:43:35.489Z,39.04
2018-08-24T22:46:06.830Z,38.87
2018-08-24T22:48:38.058Z,39.28
2018-08-24T22:51:09.349Z,39.49
2018-08-24T22:53:40.386Z,39.47
2018-08-24T22:56:11.470Z,39.41
2018-08-24T22:58:42.539Z,39.08
2018-08-24T23:01:13.459Z,39.27
2018-08-24T23:03:44.501Z,39.71
2018-08-24T23:06:15.470Z,38.96
2018-08-24T23:08:46.471Z,38.99
2018-08-24T23:11:17.501Z,39.21
2018-08-24T23:13:48.445Z,38.74
2018-08-24T23:16:19.493Z,39.58
2018-08-24T23:18:50.497Z,39.52
2018-08-24T23:21:21.717Z,38.93
2018-08-24T23:23:52.557Z,39.15
2018-08-24T23:29:10.476Z,39.14
2018-08-24T23:31:41.496Z,39.57
2018-08-24T23:34:12.621Z,38.52
2018-08-24T23:36:43.496Z,39.31
2018-08-24T23:39:14.490Z,39.23
2018-08-24T23:41:45.492Z,39.44
2018-08-24T23:44:16.594Z,39.40
2018-08-24T23:46:47.544Z,38.85
2018-08-24T23:49:19.183Z,39.29
2018-08-24T23:51:50.384Z,40.25
2018-08-24T23:54:21.487Z,39.62
2018-08-24T23:56:53.373Z,39.14
2018-08-24T23:59:24.526Z,39.55
